Dades meteomassalio
Diari Summary for Febrer 18, 2017 Units:  Metric    English   Both
« Previous Day
Next Day »
Diari Semanal Mensual Anual Personalitzat
  Maxima: Minima: Mijana:
Temperatura: 13.6 °C 0.3 °C 6.4 °C
Rosada: 9.1 °C -0.6 °C 4.4 °C
Humitat: 94 % 72 % 87 %
Velocitat del vent: 16.7 km/h 0.0 km/h 2.6 km/h
Racha vent: 16.7 km/h - -
Vent:- - NE
Pressio: 1027.0 hPa 1020.5 hPa -
Pluja: 0.5 mm    
Historical Graphs
 
 
Tabular Data for Febrer 18, 2017
Time Temperature Dew Point Pressure Wind Wind Speed Wind Gust Humidity Rainfall Rate (Hourly) solar Conditions
00:02 3.4 °C 2.3 °C 1027.0 hPa Calm     92 % 0.0 mm 0.0 W/m2 RA
00:07 3.4 °C 2.2 °C 1027.0 hPa Calm     92 % 0.0 mm 0.0 W/m2 CLR
00:12 3.3 °C 2.2 °C 1027.0 hPa Calm     92 % 0.0 mm 0.0 W/m2 CLR
00:17 3.3 °C 2.2 °C 1026.6 hPa Calm     92 % 0.0 mm 0.0 W/m2 CLR
00:27 3.1 °C 1.9 °C 1026.6 hPa Calm     92 % 0.0 mm 0.0 W/m2 CLR
00:32 3.1 °C 1.9 °C 1026.6 hPa Calm     92 % 0.0 mm 0.0 W/m2 CLR
00:37 3.0 °C 1.8 °C 1027.0 hPa Calm     92 % 0.0 mm 0.0 W/m2 CLR
00:42 2.9 °C 1.8 °C 1026.6 hPa Calm     92 % 0.0 mm 0.0 W/m2 CLR
00:47 2.9 °C 1.9 °C 1026.6 hPa Calm     93 % 0.0 mm 0.0 W/m2 CLR
00:52 2.9 °C 1.9 °C 1026.6 hPa Calm     93 % 0.0 mm 0.0 W/m2 CLR
00:57 3.0 °C 2.0 °C 1026.6 hPa Calm     93 % 0.0 mm 0.0 W/m2 CLR
01:02 2.9 °C 1.9 °C 1026.6 hPa Calm     93 % 0.0 mm 0.0 W/m2 CLR
01:07 2.9 °C 1.9 °C 1026.6 hPa Calm     93 % 0.0 mm 0.0 W/m2 CLR
01:12 2.9 °C 1.9 °C 1026.6 hPa Calm     93 % 0.0 mm 0.0 W/m2 CLR
01:17 2.9 °C 1.9 °C 1026.6 hPa Calm     93 % 0.0 mm 0.0 W/m2 CLR
01:22 2.8 °C 1.8 °C 1026.3 hPa Calm     93 % 0.0 mm 0.0 W/m2 CLR
01:27 2.8 °C 1.8 °C 1026.3 hPa Calm     93 % 0.0 mm 0.0 W/m2 CLR
01:32 2.6 °C 1.6 °C 1026.3 hPa Calm     93 % 0.0 mm 0.0 W/m2 CLR
01:37 2.5 °C 1.5 °C 1026.3 hPa Calm     93 % 0.0 mm 0.0 W/m2 CLR
01:42 2.5 °C 1.5 °C 1026.3 hPa Calm     93 % 0.0 mm 0.0 W/m2 CLR
01:47 2.4 °C 1.4 °C 1026.3 hPa Calm     93 % 0.0 mm 0.0 W/m2 CLR
01:52 2.3 °C 1.3 °C 1026.3 hPa Calm     93 % 0.0 mm 0.0 W/m2 CLR
01:57 2.4 °C 1.4 °C 1026.3 hPa Calm     93 % 0.0 mm 0.0 W/m2 CLR
02:02 2.4 °C 1.4 °C 1026.3 hPa Calm     93 % 0.0 mm 0.0 W/m2 CLR
02:07 2.3 °C 1.3 °C 1026.3 hPa Calm     93 % 0.0 mm 0.0 W/m2 CLR
02:12 2.4 °C 1.4 °C 1026.3 hPa Calm     93 % 0.0 mm 0.0 W/m2 CLR
02:17 2.6 °C 1.6 °C 1026.3 hPa Calm     93 % 0.0 mm 0.0 W/m2 CLR
02:22 2.7 °C 1.7 °C 1026.3 hPa Calm     93 % 0.0 mm 0.0 W/m2 CLR
02:27 2.4 °C 1.4 °C 1026.0 hPa Calm     93 % 0.0 mm 0.0 W/m2 CLR
02:32 2.4 °C 1.4 °C 1026.0 hPa Calm     93 % 0.3 mm 0.0 W/m2 RA
02:37 2.4 °C 1.4 °C 1026.0 hPa Calm     93 % 0.3 mm 0.0 W/m2 CLR
02:42 2.3 °C 1.3 °C 1026.0 hPa Calm     93 % 0.3 mm 0.0 W/m2 CLR
02:47 2.2 °C 1.2 °C 1026.0 hPa Calm     93 % 0.3 mm 0.0 W/m2 CLR
02:52 2.1 °C 1.1 °C 1026.0 hPa Calm     93 % 0.3 mm 0.0 W/m2 CLR
02:57 1.9 °C 0.9 °C 1026.0 hPa Calm     93 % 0.3 mm 0.0 W/m2 CLR
03:02 1.9 °C 0.9 °C 1026.0 hPa Calm     93 % 0.3 mm 0.0 W/m2 CLR
03:07 1.9 °C 0.9 °C 1026.0 hPa Calm     93 % 0.3 mm 0.0 W/m2 CLR
03:12 1.9 °C 0.9 °C 1026.0 hPa Calm     93 % 0.3 mm 0.0 W/m2 CLR
03:17 1.7 °C 0.7 °C 1025.6 hPa Calm     93 % 0.3 mm 0.0 W/m2 CLR
03:22 1.6 °C 0.6 °C 1025.6 hPa Calm     93 % 0.3 mm 0.0 W/m2 CLR
03:27 1.5 °C 0.5 °C 1025.6 hPa Calm     93 % 0.3 mm 0.0 W/m2 CLR
03:32 1.5 °C 0.5 °C 1025.6 hPa Calm     93 % 0.0 mm 0.0 W/m2 CLR
03:37 1.6 °C 0.6 °C 1025.6 hPa Calm     93 % 0.0 mm 0.0 W/m2 CLR
03:42 1.6 °C 0.6 °C 1025.6 hPa Calm     93 % 0.0 mm 0.0 W/m2 CLR
03:47 1.6 °C 0.6 °C 1025.6 hPa Calm     93 % 0.0 mm 0.0 W/m2 CLR
03:52 1.5 °C 0.5 °C 1025.6 hPa Calm     93 % 0.0 mm 0.0 W/m2 CLR
03:57 1.5 °C 0.5 °C 1025.6 hPa Calm     93 % 0.0 mm 0.0 W/m2 CLR
04:02 1.5 °C 0.5 °C 1025.6 hPa Calm     93 % 0.0 mm 0.0 W/m2 CLR
04:07 1.4 °C 0.4 °C 1025.6 hPa Calm     93 % 0.0 mm 0.0 W/m2 CLR
04:12 1.4 °C 0.4 °C 1025.6 hPa Calm     93 % 0.0 mm 0.0 W/m2 CLR
04:17 1.5 °C 0.5 °C 1025.3 hPa Calm     93 % 0.0 mm 0.0 W/m2 CLR
04:22 1.7 °C 0.8 °C 1025.3 hPa Calm     94 % 0.0 mm 0.0 W/m2 CLR
04:27 1.7 °C 0.8 °C 1025.3 hPa Calm     94 % 0.0 mm 0.0 W/m2 CLR
04:32 1.6 °C 0.6 °C 1025.3 hPa Calm     93 % 0.0 mm 0.0 W/m2 CLR
04:37 1.4 °C 0.4 °C 1025.3 hPa Calm     93 % 0.0 mm 0.0 W/m2 CLR
04:42 1.3 °C 0.3 °C 1025.3 hPa Calm     93 % 0.0 mm 0.0 W/m2 CLR
04:47 1.2 °C 0.2 °C 1025.3 hPa Calm     93 % 0.0 mm 0.0 W/m2 CLR
04:52 1.1 °C 0.1 °C 1025.3 hPa Calm     93 % 0.0 mm 0.0 W/m2 CLR
04:57 1.1 °C 0.1 °C 1025.3 hPa Calm     93 % 0.0 mm 0.0 W/m2 CLR
05:02 1.1 °C 0.2 °C 1025.3 hPa Calm     94 % 0.0 mm 0.0 W/m2 CLR
05:07 1.1 °C 0.2 °C 1025.3 hPa Calm     94 % 0.0 mm 0.0 W/m2 CLR
05:12 1.0 °C 0.2 °C 1025.3 hPa Calm     94 % 0.0 mm 0.0 W/m2 CLR
05:17 0.9 °C -0.1 °C 1025.3 hPa Calm     93 % 0.0 mm 0.0 W/m2 CLR
05:22 0.9 °C -0.1 °C 1025.3 hPa Calm     93 % 0.0 mm 0.0 W/m2 CLR
05:27 0.8 °C -0.2 °C 1025.3 hPa Calm     93 % 0.0 mm 0.0 W/m2 CLR
05:32 0.8 °C -0.2 °C 1025.3 hPa Calm     93 % 0.0 mm 0.0 W/m2 CLR
05:37 0.8 °C -0.2 °C 1025.3 hPa Calm     93 % 0.0 mm 0.0 W/m2 CLR
05:42 0.8 °C -0.2 °C 1025.3 hPa Calm     93 % 0.0 mm 0.0 W/m2 CLR
05:47 0.8 °C -0.2 °C 1025.3 hPa Calm     93 % 0.0 mm 0.0 W/m2 CLR
05:52 0.9 °C 0.1 °C 1025.3 hPa Calm     94 % 0.0 mm 0.0 W/m2 CLR
05:57 1.1 °C 0.2 °C 1025.3 hPa Calm     94 % 0.0 mm 0.0 W/m2 CLR
06:02 1.3 °C 0.4 °C 1025.3 hPa Calm     94 % 0.0 mm 0.0 W/m2 CLR
06:07 1.3 °C 0.5 °C 1025.3 hPa Calm     94 % 0.0 mm 0.0 W/m2 CLR
06:12 1.2 °C 0.2 °C 1025.3 hPa Calm     93 % 0.0 mm 0.0 W/m2 CLR
06:17 1.1 °C 0.1 °C 1025.3 hPa Calm     93 % 0.0 mm 0.0 W/m2 CLR
06:22 0.9 °C -0.1 °C 1025.3 hPa Calm     93 % 0.0 mm 0.0 W/m2 CLR
06:27 0.7 °C -0.3 °C 1025.3 hPa Calm     93 % 0.0 mm 0.0 W/m2 CLR
06:32 0.6 °C -0.4 °C 1025.3 hPa Calm     93 % 0.0 mm 0.0 W/m2 CLR
06:33 0.6 °C -0.4 °C 1025.3 hPa Calm     93 % 0.0 mm 0.0 W/m2 CLR
06:38 0.6 °C -0.3 °C 1024.9 hPa Calm     94 % 0.0 mm 0.0 W/m2 CLR
06:43 0.6 °C -0.4 °C 1025.3 hPa Calm     93 % 0.0 mm 0.0 W/m2 CLR
06:48 0.6 °C -0.4 °C 1024.9 hPa Calm     93 % 0.0 mm 0.0 W/m2 CLR
06:53 0.4 °C -0.6 °C 1025.3 hPa Calm     93 % 0.0 mm 0.0 W/m2 CLR
06:58 0.4 °C -0.6 °C 1024.9 hPa Calm     93 % 0.0 mm 0.0 W/m2 CLR
07:03 0.4 °C -0.4 °C 1024.9 hPa Calm     94 % 0.0 mm 0.0 W/m2 CLR
07:08 0.4 °C -0.4 °C 1024.9 hPa Calm     94 % 0.0 mm 0.0 W/m2 CLR
07:13 0.4 °C -0.4 °C 1024.9 hPa Calm     94 % 0.0 mm 0.0 W/m2 CLR
07:18 0.4 °C -0.4 °C 1024.9 hPa Calm     94 % 0.0 mm 0.0 W/m2 CLR
07:23 0.5 °C -0.3 °C 1024.9 hPa Calm     94 % 0.0 mm 0.0 W/m2 CLR
07:28 0.5 °C -0.3 °C 1025.3 hPa Calm     94 % 0.0 mm 0.0 W/m2 CLR
07:33 0.4 °C -0.4 °C 1025.3 hPa Calm     94 % 0.0 mm 0.0 W/m2 CLR
07:38 0.3 °C -0.5 °C 1025.3 hPa Calm     94 % 0.0 mm 0.0 W/m2 CLR
07:43 0.3 °C -0.5 °C 1025.3 hPa Calm     94 % 0.0 mm 0.0 W/m2 OVC
07:48 0.4 °C -0.4 °C 1025.3 hPa Calm     94 % 0.0 mm 0.0 W/m2 OVC
07:53 0.5 °C -0.3 °C 1025.3 hPa Calm     94 % 0.0 mm 5.0 W/m2 OVC
07:58 0.6 °C -0.3 °C 1025.3 hPa Calm     94 % 0.0 mm 9.0 W/m2 BKN
08:03 0.6 °C -0.2 °C 1025.3 hPa Calm     94 % 0.0 mm 12.0 W/m2 BKN
08:08 0.5 °C -0.3 °C 1025.3 hPa Calm     94 % 0.0 mm 16.0 W/m2 BKN
08:13 0.5 °C -0.3 °C 1025.3 hPa Calm     94 % 0.0 mm 23.0 W/m2 BKN
08:18 0.7 °C -0.2 °C 1025.3 hPa Calm     94 % 0.0 mm 30.0 W/m2 BKN
08:23 0.8 °C 0.0 °C 1025.3 hPa Calm     94 % 0.0 mm 37.0 W/m2 BKN
08:28 0.9 °C 0.1 °C 1025.3 hPa Calm     94 % 0.0 mm 44.0 W/m2 BKN
08:33 0.9 °C 0.1 °C 1025.3 hPa Calm     94 % 0.0 mm 54.0 W/m2 SCT
08:38 1.1 °C 0.2 °C 1025.3 hPa Calm     94 % 0.0 mm 67.0 W/m2 SCT
08:43 1.3 °C 0.4 °C 1025.3 hPa Calm     94 % 0.0 mm 77.0 W/m2 FEW
08:48 1.6 °C 0.7 °C 1025.3 hPa Calm     94 % 0.0 mm 81.0 W/m2 FEW
08:53 1.9 °C 1.0 °C 1025.3 hPa Calm     94 % 0.0 mm 114.0 W/m2 CLR
08:58 2.1 °C 1.2 °C 1025.3 hPa Calm     94 % 0.0 mm 130.0 W/m2 CLR
09:03 2.3 °C 1.4 °C 1025.3 hPa Calm     94 % 0.0 mm 144.0 W/m2 CLR
09:08 2.4 °C 1.6 °C 1025.3 hPa Calm     94 % 0.3 mm 158.0 W/m2 RA
09:13 2.8 °C 1.9 °C 1024.9 hPa Calm     94 % 0.3 mm 128.0 W/m2 CLR
09:18 3.2 °C 2.3 °C 1024.9 hPa Calm     94 % 0.3 mm 195.0 W/m2 CLR
09:23 3.5 °C 2.6 °C 1024.9 hPa Calm     94 % 0.3 mm 209.0 W/m2 CLR
09:28 3.9 °C 3.1 °C 1024.9 hPa Calm     94 % 0.3 mm 229.0 W/m2 CLR
09:33 4.2 °C 3.3 °C 1024.9 hPa Calm     94 % 0.3 mm 243.0 W/m2 CLR
09:38 4.5 °C 3.4 °C 1024.9 hPa Calm     93 % 0.3 mm 255.0 W/m2 CLR
09:43 4.8 °C 3.8 °C 1024.9 hPa Calm     93 % 0.3 mm 269.0 W/m2 CLR
09:48 5.2 °C 4.2 °C 1024.9 hPa Calm     93 % 0.3 mm 281.0 W/m2 CLR
09:53 5.8 °C 4.7 °C 1024.9 hPa Calm     93 % 0.3 mm 297.0 W/m2 CLR
09:59 6.2 °C 5.2 °C 1024.9 hPa Calm     93 % 0.3 mm 309.0 W/m2 CLR
10:04 6.4 °C 5.1 °C 1024.9 hPa Calm     91 % 0.3 mm 323.0 W/m2 CLR
10:09 6.7 °C 5.3 °C 1024.9 hPa Calm     91 % 0.0 mm 336.0 W/m2 CLR
10:14 7.0 °C 5.4 °C 1024.6 hPa Calm     90 % 0.0 mm 348.0 W/m2 CLR
10:19 7.4 °C 5.8 °C 1024.6 hPa Calm     90 % 0.0 mm 359.0 W/m2 CLR
10:24 7.9 °C 6.2 °C 1024.6 hPa Calm     89 % 0.0 mm 371.0 W/m2 CLR
10:29 8.2 °C 6.2 °C 1024.6 hPa Calm     87 % 0.0 mm 383.0 W/m2 CLR
10:34 8.6 °C 6.3 °C 1024.6 hPa ENE 1.9 km/h   86 % 0.0 mm 396.0 W/m2 CLR
10:39 8.9 °C 6.5 °C 1024.6 hPa Calm     85 % 0.0 mm 406.0 W/m2 CLR
10:44 9.2 °C 6.7 °C 1024.6 hPa Calm     84 % 0.0 mm 413.0 W/m2 CLR
10:49 9.6 °C 6.9 °C 1024.3 hPa Calm     83 % 0.0 mm 427.0 W/m2 CLR
10:54 10.1 °C 6.9 °C 1024.3 hPa Calm     81 % 0.0 mm 439.0 W/m2 CLR
10:59 10.3 °C 7.1 °C 1024.3 hPa Calm     80 % 0.0 mm 450.0 W/m2 CLR
11:04 10.7 °C 7.2 °C 1024.3 hPa Calm     79 % 0.0 mm 462.0 W/m2 CLR
11:09 10.9 °C 7.0 °C 1023.9 hPa NE 5.6 km/h   77 % 0.0 mm 473.0 W/m2 CLR
11:14 10.9 °C 7.0 °C 1023.9 hPa Calm     77 % 0.0 mm 480.0 W/m2 CLR
11:19 11.1 °C 7.0 °C 1023.9 hPa Calm   0.2 km/h 76 % 0.0 mm 492.0 W/m2 CLR
11:24 11.3 °C 7.2 °C 1023.9 hPa Calm     76 % 0.0 mm 497.0 W/m2 CLR
11:29 11.5 °C 7.2 °C 1023.9 hPa NE 5.6 km/h 5.6 km/h 75 % 0.0 mm 508.0 W/m2 CLR
11:34 11.6 °C 7.3 °C 1023.9 hPa ENE 9.3 km/h 9.3 km/h 75 % 0.0 mm 517.0 W/m2 CLR
11:39 11.6 °C 7.5 °C 1023.9 hPa ENE 9.3 km/h 9.3 km/h 76 % 0.0 mm 524.0 W/m2 CLR
11:44 11.7 °C 7.4 °C 1023.9 hPa NE 9.3 km/h 9.3 km/h 75 % 0.0 mm 531.0 W/m2 CLR
11:49 11.6 °C 7.4 °C 1023.6 hPa NE 11.1 km/h 11.1 km/h 76 % 0.0 mm 540.0 W/m2 CLR
11:54 11.4 °C 7.3 °C 1023.6 hPa ENE 11.1 km/h 11.1 km/h 76 % 0.0 mm 545.0 W/m2 CLR
11:59 11.4 °C 7.5 °C 1023.6 hPa ENE 13.0 km/h 13.0 km/h 77 % 0.0 mm 550.0 W/m2 CLR
12:04 11.3 °C 7.4 °C 1023.6 hPa ENE 11.1 km/h 11.1 km/h 77 % 0.0 mm 561.0 W/m2 CLR
12:09 11.4 °C 7.7 °C 1023.6 hPa ENE 11.1 km/h 11.1 km/h 78 % 0.0 mm 566.0 W/m2 CLR
12:14 11.3 °C 7.6 °C 1023.6 hPa ENE 13.0 km/h 13.0 km/h 78 % 0.0 mm 571.0 W/m2 CLR
12:19 11.2 °C 7.7 °C 1023.2 hPa ENE 11.1 km/h 11.1 km/h 79 % 0.0 mm 575.0 W/m2 CLR
12:24 11.4 °C 7.9 °C 1023.2 hPa NE 11.3 km/h 11.3 km/h 79 % 0.0 mm 580.0 W/m2 CLR
12:29 11.4 °C 7.9 °C 1023.2 hPa NE 13.0 km/h 13.0 km/h 79 % 0.0 mm 582.0 W/m2 CLR
12:34 11.4 °C 7.9 °C 1023.2 hPa NE 11.1 km/h 11.1 km/h 79 % 0.0 mm 585.0 W/m2 CLR
12:39 11.3 °C 7.8 °C 1022.9 hPa ENE 11.1 km/h 11.1 km/h 79 % 0.0 mm 591.0 W/m2 CLR
12:44 11.4 °C 8.1 °C 1022.9 hPa ENE 7.4 km/h 8.8 km/h 80 % 0.0 mm 594.0 W/m2 CLR
12:49 11.5 °C 8.0 °C 1022.9 hPa NE 11.1 km/h 11.1 km/h 79 % 0.0 mm 596.0 W/m2 CLR
12:54 11.5 °C 7.8 °C 1022.6 hPa ENE 13.0 km/h 13.0 km/h 78 % 0.0 mm 598.0 W/m2 CLR
12:59 11.6 °C 8.2 °C 1022.6 hPa NE 13.0 km/h 13.0 km/h 80 % 0.0 mm 599.0 W/m2 CLR
13:04 11.6 °C 8.1 °C 1022.6 hPa ENE 9.7 km/h 9.7 km/h 79 % 0.0 mm 601.0 W/m2 CLR
13:09 11.7 °C 7.9 °C 1022.6 hPa NE 11.1 km/h 11.1 km/h 78 % 0.0 mm 601.0 W/m2 CLR
13:14 11.8 °C 8.3 °C 1022.6 hPa NNE 11.1 km/h 11.1 km/h 79 % 0.0 mm 599.0 W/m2 CLR
13:19 11.8 °C 8.1 °C 1022.6 hPa ENE 9.3 km/h 9.3 km/h 78 % 0.0 mm 599.0 W/m2 CLR
13:24 11.9 °C 8.2 °C 1022.2 hPa ENE 14.8 km/h 14.8 km/h 78 % 0.0 mm 601.0 W/m2 CLR
13:29 12.0 °C 8.3 °C 1022.2 hPa ENE 13.0 km/h 13.0 km/h 78 % 0.0 mm 599.0 W/m2 CLR
13:34 12.1 °C 8.2 °C 1022.2 hPa NE 14.5 km/h 14.5 km/h 77 % 0.0 mm 596.0 W/m2 CLR
13:39 12.1 °C 8.2 °C 1021.9 hPa NE 14.5 km/h 14.5 km/h 77 % 0.0 mm 598.0 W/m2 CLR
13:44 12.1 °C 8.2 °C 1021.9 hPa ENE 14.8 km/h 14.8 km/h 77 % 0.0 mm 592.0 W/m2 CLR
13:49 12.2 °C 8.4 °C 1021.9 hPa NNE 9.3 km/h 9.3 km/h 78 % 0.0 mm 589.0 W/m2 CLR
13:54 12.4 °C 8.4 °C 1021.9 hPa ENE 9.7 km/h 9.7 km/h 77 % 0.0 mm 589.0 W/m2 CLR
13:59 12.6 °C 8.6 °C 1021.9 hPa NE 9.3 km/h 9.3 km/h 77 % 0.0 mm 584.0 W/m2 CLR
14:04 12.7 °C 8.6 °C 1021.9 hPa NE 7.4 km/h 7.4 km/h 76 % 0.0 mm 578.0 W/m2 CLR
14:09 12.8 °C 8.4 °C 1021.6 hPa ENE 11.1 km/h 11.1 km/h 75 % 0.0 mm 575.0 W/m2 CLR
14:14 12.8 °C 8.4 °C 1021.6 hPa ENE 11.1 km/h 11.1 km/h 75 % 0.0 mm 568.0 W/m2 CLR
14:19 12.8 °C 8.7 °C 1021.6 hPa NE 14.8 km/h 14.8 km/h 76 % 0.0 mm 568.0 W/m2 CLR
14:24 12.6 °C 8.3 °C 1021.6 hPa ENE 12.9 km/h 12.9 km/h 75 % 0.0 mm 559.0 W/m2 CLR
14:29 12.6 °C 8.5 °C 1021.6 hPa NE 16.7 km/h 16.7 km/h 76 % 0.0 mm 554.0 W/m2 CLR
14:34 12.7 °C 8.6 °C 1021.6 hPa NE 9.3 km/h 9.3 km/h 76 % 0.0 mm 548.0 W/m2 CLR
14:39 12.7 °C 8.4 °C 1021.2 hPa NE 8.0 km/h 8.0 km/h 75 % 0.0 mm 541.0 W/m2 CLR
14:44 12.8 °C 8.3 °C 1021.2 hPa NE 13.0 km/h 13.0 km/h 74 % 0.0 mm 534.0 W/m2 CLR
14:49 12.7 °C 8.2 °C 1021.2 hPa NE 11.1 km/h 11.1 km/h 74 % 0.0 mm 529.0 W/m2 CLR
14:54 12.7 °C 8.2 °C 1021.2 hPa NNE 7.4 km/h 7.4 km/h 74 % 0.0 mm 520.0 W/m2 CLR
14:59 12.9 °C 8.4 °C 1021.2 hPa NE 5.6 km/h 5.6 km/h 74 % 0.0 mm 510.0 W/m2 CLR
15:04 13.2 °C 8.8 °C 1021.2 hPa ENE 14.8 km/h 14.8 km/h 75 % 0.0 mm 499.0 W/m2 CLR
15:09 13.2 °C 8.9 °C 1021.2 hPa NNE 9.3 km/h 9.3 km/h 75 % 0.0 mm 492.0 W/m2 CLR
15:14 13.2 °C 8.9 °C 1020.9 hPa NE 13.0 km/h 13.0 km/h 75 % 0.0 mm 483.0 W/m2 CLR
15:19 13.2 °C 8.8 °C 1020.9 hPa NE 13.0 km/h 13.0 km/h 75 % 0.0 mm 471.0 W/m2 CLR
15:24 13.1 °C 8.8 °C 1020.9 hPa NE 13.0 km/h 13.0 km/h 75 % 0.0 mm 461.0 W/m2 CLR
15:29 13.1 °C 9.0 °C 1020.9 hPa NNE 7.4 km/h 7.4 km/h 76 % 0.0 mm 452.0 W/m2 CLR
15:39 13.3 °C 8.6 °C 1020.9 hPa ENE 11.1 km/h 11.1 km/h 73 % 0.0 mm 425.0 W/m2 CLR
15:44 13.3 °C 8.6 °C 1020.9 hPa ENE 8.0 km/h 8.0 km/h 73 % 0.0 mm 417.0 W/m2 CLR
15:49 13.4 °C 8.7 °C 1020.9 hPa ENE 8.0 km/h 8.0 km/h 73 % 0.0 mm 410.0 W/m2 CLR
15:54 13.5 °C 8.8 °C 1020.9 hPa ENE 13.0 km/h 13.0 km/h 73 % 0.0 mm 397.0 W/m2 CLR
15:59 13.5 °C 8.8 °C 1020.5 hPa ENE 9.3 km/h 9.3 km/h 73 % 0.0 mm 385.0 W/m2 CLR
16:04 13.4 °C 8.7 °C 1020.5 hPa NE 13.0 km/h 13.0 km/h 73 % 0.0 mm 367.0 W/m2 CLR
16:09 13.3 °C 8.8 °C 1020.5 hPa NE 9.3 km/h 9.3 km/h 74 % 0.0 mm 357.0 W/m2 CLR
16:14 13.4 °C 8.7 °C 1020.5 hPa Calm     73 % 0.0 mm 346.0 W/m2 CLR
16:19 13.4 °C 8.7 °C 1020.5 hPa NNE 11.1 km/h 11.1 km/h 73 % 0.0 mm 330.0 W/m2 CLR
16:24 13.5 °C 8.8 °C 1020.5 hPa Calm     73 % 0.0 mm 316.0 W/m2 CLR
16:29 13.6 °C 8.6 °C 1020.5 hPa NE 9.7 km/h 9.7 km/h 72 % 0.0 mm 306.0 W/m2 CLR
16:34 13.6 °C 8.8 °C 1020.5 hPa NE 9.7 km/h 9.7 km/h 73 % 0.0 mm 290.0 W/m2 CLR
16:39 13.4 °C 8.5 °C 1020.5 hPa Calm     72 % 0.0 mm 281.0 W/m2 CLR
16:44 13.5 °C 8.8 °C 1020.5 hPa NE 7.4 km/h 7.4 km/h 73 % 0.0 mm 265.0 W/m2 CLR
16:49 13.3 °C 8.6 °C 1020.5 hPa Calm     73 % 0.0 mm 250.0 W/m2 CLR
16:54 13.3 °C 8.8 °C 1020.5 hPa NNE 11.1 km/h 11.1 km/h 74 % 0.0 mm 237.0 W/m2 CLR
16:59 13.3 °C 8.7 °C 1020.5 hPa NE 9.3 km/h 9.3 km/h 74 % 0.0 mm 223.0 W/m2 CLR
17:04 13.2 °C 8.8 °C 1020.5 hPa Calm     75 % 0.0 mm 204.0 W/m2 CLR
17:09 13.1 °C 8.9 °C 1020.5 hPa NE 7.4 km/h 7.4 km/h 76 % 0.0 mm 181.0 W/m2 CLR
17:14 12.9 °C 8.9 °C 1020.5 hPa NNE 9.3 km/h 9.3 km/h 77 % 0.0 mm 163.0 W/m2 CLR
17:19 12.7 °C 9.0 °C 1020.5 hPa NE 4.8 km/h   78 % 0.0 mm 149.0 W/m2 CLR
17:24 12.6 °C 9.1 °C 1020.5 hPa ENE 9.3 km/h 9.3 km/h 79 % 0.0 mm 135.0 W/m2 CLR
17:29 12.5 °C 8.9 °C 1020.5 hPa Calm     79 % 0.0 mm 116.0 W/m2 CLR
17:34 12.4 °C 9.1 °C 1020.5 hPa NE 9.3 km/h 9.3 km/h 80 % 0.0 mm 100.0 W/m2 CLR
17:39 12.2 °C 9.1 °C 1020.5 hPa NNE 9.3 km/h 9.3 km/h 81 % 0.0 mm 90.0 W/m2 CLR
17:44 12.1 °C 8.9 °C 1020.5 hPa NE 7.4 km/h   81 % 0.0 mm 81.0 W/m2 FEW
17:49 11.9 °C 8.9 °C 1020.5 hPa Calm     82 % 0.0 mm 56.0 W/m2 SCT
17:54 11.8 °C 8.8 °C 1020.5 hPa NNE 5.6 km/h 5.6 km/h 82 % 0.0 mm 47.0 W/m2 SCT
17:55 11.8 °C 8.8 °C 1020.5 hPa Calm     82 % 0.0 mm 46.0 W/m2 SCT
17:56 11.8 °C 8.8 °C 1020.5 hPa Calm     82 % 0.0 mm 46.0 W/m2 SCT
17:57 11.8 °C 8.8 °C 1020.9 hPa Calm     82 % 0.0 mm 44.0 W/m2 SCT
18:02 11.6 °C 8.8 °C 1020.9 hPa Calm     83 % 0.0 mm 18.0 W/m2 BKN
18:07 11.5 °C 8.7 °C 1020.9 hPa Calm     83 % 0.0 mm 18.0 W/m2 BKN
18:12 11.4 °C 8.8 °C 1020.9 hPa Calm     84 % 0.0 mm 11.0 W/m2 BKN
18:17 11.2 °C 8.6 °C 1020.9 hPa Calm     84 % 0.0 mm 9.0 W/m2 BKN
18:22 11.1 °C 8.5 °C 1020.9 hPa Calm     84 % 0.0 mm 7.0 W/m2 BKN
18:27 10.9 °C 8.5 °C 1020.9 hPa Calm     85 % 0.0 mm 5.0 W/m2 OVC
18:32 10.8 °C 8.3 °C 1020.9 hPa Calm     85 % 0.0 mm 0.0 W/m2 OVC
18:37 10.7 °C 8.4 °C 1020.9 hPa Calm     86 % 0.0 mm 0.0 W/m2 OVC
18:42 10.6 °C 8.4 °C 1020.9 hPa Calm     86 % 0.0 mm 0.0 W/m2 OVC
18:47 10.4 °C 8.2 °C 1020.9 hPa Calm     86 % 0.0 mm 0.0 W/m2 OVC
18:52 10.3 °C 8.1 °C 1020.9 hPa Calm     86 % 0.0 mm 0.0 W/m2 CLR
18:57 10.2 °C 7.9 °C 1020.9 hPa Calm     86 % 0.0 mm 0.0 W/m2 CLR
19:02 10.0 °C 7.9 °C 1020.9 hPa Calm     87 % 0.0 mm 0.0 W/m2 CLR
19:07 9.9 °C 8.1 °C 1020.9 hPa Calm     88 % 0.0 mm 0.0 W/m2 CLR
19:12 9.8 °C 7.9 °C 1020.9 hPa Calm     88 % 0.0 mm 0.0 W/m2 CLR
19:17 9.6 °C 7.6 °C 1020.9 hPa Calm     87 % 0.0 mm 0.0 W/m2 CLR
19:22 9.5 °C 7.6 °C 1020.9 hPa Calm     88 % 0.0 mm 0.0 W/m2 CLR
19:27 9.3 °C 7.4 °C 1021.2 hPa Calm     88 % 0.0 mm 0.0 W/m2 CLR
19:32 9.2 °C 7.3 °C 1021.2 hPa Calm     88 % 0.0 mm 0.0 W/m2 CLR
19:37 9.0 °C 7.1 °C 1021.2 hPa Calm     88 % 0.0 mm 0.0 W/m2 CLR
19:42 8.8 °C 6.9 °C 1021.2 hPa Calm     88 % 0.0 mm 0.0 W/m2 CLR
19:47 8.6 °C 6.7 °C 1021.2 hPa Calm     88 % 0.0 mm 0.0 W/m2 CLR
19:52 8.3 °C 6.6 °C 1021.2 hPa Calm     89 % 0.0 mm 0.0 W/m2 CLR
19:57 8.2 °C 6.7 °C 1021.2 hPa Calm     90 % 0.0 mm 0.0 W/m2 CLR
20:02 8.0 °C 6.3 °C 1021.2 hPa Calm     89 % 0.0 mm 0.0 W/m2 CLR
20:07 7.8 °C 6.1 °C 1021.2 hPa Calm     89 % 0.0 mm 0.0 W/m2 CLR
20:12 7.6 °C 5.8 °C 1021.6 hPa Calm     89 % 0.0 mm 0.0 W/m2 CLR
20:17 7.4 °C 5.7 °C 1021.6 hPa Calm     89 % 0.0 mm 0.0 W/m2 CLR
20:22 7.2 °C 5.7 °C 1021.6 hPa Calm     90 % 0.0 mm 0.0 W/m2 CLR
20:27 7.1 °C 5.6 °C 1021.6 hPa Calm     90 % 0.0 mm 0.0 W/m2 CLR
20:32 6.9 °C 5.4 °C 1021.6 hPa Calm     90 % 0.0 mm 0.0 W/m2 CLR
20:37 6.8 °C 5.3 °C 1021.9 hPa Calm     90 % 0.0 mm 0.0 W/m2 CLR
20:42 6.6 °C 5.2 °C 1021.9 hPa Calm     91 % 0.0 mm 0.0 W/m2 CLR
20:48 6.3 °C 4.8 °C 1021.9 hPa Calm     90 % 0.0 mm 0.0 W/m2 CLR
20:53 6.2 °C 4.9 °C 1021.9 hPa Calm     91 % 0.0 mm 0.0 W/m2 CLR
20:58 6.1 °C 4.8 °C 1022.2 hPa Calm     91 % 0.0 mm 0.0 W/m2 CLR
21:03 6.0 °C 4.7 °C 1022.2 hPa Calm     91 % 0.0 mm 0.0 W/m2 CLR
21:08 5.9 °C 4.6 °C 1022.2 hPa Calm     91 % 0.0 mm 0.0 W/m2 CLR
21:13 5.8 °C 4.5 °C 1022.2 hPa Calm     91 % 0.0 mm 0.0 W/m2 CLR
21:18 5.7 °C 4.4 °C 1022.2 hPa Calm     91 % 0.0 mm 0.0 W/m2 CLR
21:23 5.7 °C 4.4 °C 1022.2 hPa Calm     92 % 0.0 mm 0.0 W/m2 CLR
21:28 5.6 °C 4.4 °C 1022.2 hPa Calm     92 % 0.0 mm 0.0 W/m2 CLR
21:33 5.5 °C 4.3 °C 1022.2 hPa Calm     92 % 0.0 mm 0.0 W/m2 CLR
21:38 5.3 °C 4.1 °C 1022.2 hPa Calm     92 % 0.0 mm 0.0 W/m2 CLR
21:43 5.1 °C 3.9 °C 1022.2 hPa Calm     92 % 0.0 mm 0.0 W/m2 CLR
21:48 5.1 °C 3.9 °C 1022.6 hPa Calm     92 % 0.0 mm 0.0 W/m2 CLR
21:53 4.9 °C 3.8 °C 1022.6 hPa Calm     92 % 0.0 mm 0.0 W/m2 CLR
21:58 4.8 °C 3.7 °C 1022.6 hPa Calm     92 % 0.0 mm 0.0 W/m2 CLR
22:03 4.7 °C 3.6 °C 1022.6 hPa Calm     92 % 0.0 mm 0.0 W/m2 CLR
22:08 4.6 °C 3.4 °C 1022.6 hPa Calm     92 % 0.0 mm 0.0 W/m2 CLR
22:13 4.6 °C 3.4 °C 1022.6 hPa Calm     92 % 0.0 mm 0.0 W/m2 CLR
22:18 4.4 °C 3.3 °C 1022.9 hPa Calm     92 % 0.0 mm 0.0 W/m2 CLR
22:23 4.4 °C 3.3 °C 1022.9 hPa Calm     92 % 0.0 mm 0.0 W/m2 CLR
22:28 4.3 °C 3.2 °C 1022.9 hPa Calm     92 % 0.0 mm 0.0 W/m2 CLR
22:29 4.3 °C 3.1 °C 1022.9 hPa Calm     92 % 0.0 mm 0.0 W/m2 CLR
22:34 4.1 °C 2.9 °C 1022.9 hPa Calm     92 % 0.0 mm 0.0 W/m2 CLR
22:39 4.0 °C 2.8 °C 1022.9 hPa Calm     92 % 0.0 mm 0.0 W/m2 CLR
22:44 3.9 °C 2.8 °C 1022.9 hPa Calm     92 % 0.0 mm 0.0 W/m2 CLR
22:49 4.0 °C 2.9 °C 1022.9 hPa Calm     93 % 0.0 mm 0.0 W/m2 CLR
22:54 4.0 °C 2.9 °C 1022.9 hPa Calm     93 % 0.0 mm 0.0 W/m2 CLR
22:59 4.1 °C 3.0 °C 1023.2 hPa Calm     93 % 0.0 mm 0.0 W/m2 CLR
23:04 4.0 °C 2.9 °C 1023.2 hPa Calm     93 % 0.0 mm 0.0 W/m2 CLR
23:09 4.0 °C 2.9 °C 1023.2 hPa Calm     93 % 0.0 mm 0.0 W/m2 CLR
23:15 4.0 °C 2.9 °C 1023.2 hPa Calm     93 % 0.0 mm 0.0 W/m2 CLR
23:20 3.9 °C 2.9 °C 1023.2 hPa Calm     93 % 0.0 mm 0.0 W/m2 CLR
23:25 3.8 °C 2.8 °C 1023.2 hPa Calm     93 % 0.0 mm 0.0 W/m2 CLR
23:30 3.8 °C 2.7 °C 1023.6 hPa Calm     93 % 0.0 mm 0.0 W/m2 CLR
23:35 3.7 °C 2.7 °C 1023.6 hPa Calm     93 % 0.0 mm 0.0 W/m2 CLR
23:40 3.7 °C 2.7 °C 1023.6 hPa Calm     93 % 0.0 mm 0.0 W/m2 CLR
23:45 3.7 °C 2.7 °C 1023.6 hPa Calm     93 % 0.0 mm 0.0 W/m2 CLR
23:50 3.4 °C 2.4 °C 1023.6 hPa Calm     93 % 0.0 mm 0.0 W/m2 CLR
23:55 3.3 °C 2.3 °C 1023.6 hPa Calm     93 % 0.0 mm 0.0 W/m2 CLR
Lo Temps de Massalio
Compliments of Weather Underground - 1.25 mb